sensor_id;sensor_type;location;lat;lon;timestamp;pressure;altitude;pressure_sealevel;temperature;humidity
34921;BME280;21128;50.016;20.002;2023-02-04T00:00:11;98041.69;;;1.92;100.00
34921;BME280;21128;50.016;20.002;2023-02-04T00:02:59;98039.84;;;1.94;100.00
34921;BME280;21128;50.016;20.002;2023-02-04T00:05:27;98031.95;;;1.95;100.00
34921;BME280;21128;50.016;20.002;2023-02-04T00:07:54;98032.66;;;1.97;100.00
34921;BME280;21128;50.016;20.002;2023-02-04T00:10:21;98029.84;;;2.01;100.00
34921;BME280;21128;50.016;20.002;2023-02-04T00:12:49;98025.30;;;2.04;100.00
34921;BME280;21128;50.016;20.002;2023-02-04T00:15:16;98025.06;;;2.07;100.00
34921;BME280;21128;50.016;20.002;2023-02-04T00:17:43;98020.51;;;2.11;100.00
34921;BME280;21128;50.016;20.002;2023-02-04T00:20:10;98030.53;;;2.15;100.00
34921;BME280;21128;50.016;20.002;2023-02-04T00:22:38;98026.88;;;2.18;100.00
34921;BME280;21128;50.016;20.002;2023-02-04T00:25:07;98031.87;;;2.21;100.00
34921;BME280;21128;50.016;20.002;2023-02-04T00:27:35;98027.39;;;2.23;100.00
34921;BME280;21128;50.016;20.002;2023-02-04T00:30:11;98031.52;;;2.25;100.00
34921;BME280;21128;50.016;20.002;2023-02-04T00:32:40;98029.67;;;2.28;100.00
34921;BME280;21128;50.016;20.002;2023-02-04T00:35:08;98024.26;;;2.31;100.00
34921;BME280;21128;50.016;20.002;2023-02-04T00:37:36;98018.13;;;2.32;100.00
34921;BME280;21128;50.016;20.002;2023-02-04T00:40:03;98019.78;;;2.33;100.00
34921;BME280;21128;50.016;20.002;2023-02-04T00:42:30;98028.39;;;2.33;100.00
34921;BME280;21128;50.016;20.002;2023-02-04T00:44:57;98017.07;;;2.34;100.00
34921;BME280;21128;50.016;20.002;2023-02-04T00:47:25;98013.53;;;2.35;100.00
34921;BME280;21128;50.016;20.002;2023-02-04T00:49:53;98013.53;;;2.35;100.00
34921;BME280;21128;50.016;20.002;2023-02-04T00:52:20;98009.21;;;2.36;100.00
34921;BME280;21128;50.016;20.002;2023-02-04T00:54:48;98006.50;;;2.37;100.00
34921;BME280;21128;50.016;20.002;2023-02-04T00:57:15;98001.31;;;2.37;100.00
34921;BME280;21128;50.016;20.002;2023-02-04T00:59:43;98013.45;;;2.37;100.00
34921;BME280;21128;50.016;20.002;2023-02-04T01:02:11;98013.45;;;2.37;100.00
34921;BME280;21128;50.016;20.002;2023-02-04T01:04:38;98010.86;;;2.37;100.00
34921;BME280;21128;50.016;20.002;2023-02-04T01:07:05;98012.52;;;2.38;100.00
34921;BME280;21128;50.016;20.002;2023-02-04T01:09:32;98015.22;;;2.36;100.00
34921;BME280;21128;50.016;20.002;2023-02-04T01:12:00;98012.63;;;2.36;100.00
34921;BME280;21128;50.016;20.002;2023-02-04T01:14:27;97988.55;;;2.34;100.00
34921;BME280;21128;50.016;20.002;2023-02-04T01:16:54;97989.50;;;2.33;100.00
34921;BME280;21128;50.016;20.002;2023-02-04T01:19:21;97994.56;;;2.35;100.00
34921;BME280;21128;50.016;20.002;2023-02-04T01:21:49;97985.02;;;2.35;100.00
34921;BME280;21128;50.016;20.002;2023-02-04T01:24:16;97997.98;;;2.35;100.00
34921;BME280;21128;50.016;20.002;2023-02-04T01:26:43;97994.48;;;2.36;100.00
34921;BME280;21128;50.016;20.002;2023-02-04T01:29:11;97992.59;;;2.38;100.00
34921;BME280;21128;50.016;20.002;2023-02-04T01:31:38;97989.06;;;2.39;100.00
34921;BME280;21128;50.016;20.002;2023-02-04T01:34:05;97978.69;;;2.39;100.00
34921;BME280;21128;50.016;20.002;2023-02-04T01:36:33;97988.12;;;2.40;100.00
34921;BME280;21128;50.016;20.002;2023-02-04T01:39:02;97979.52;;;2.40;100.00
34921;BME280;21128;50.016;20.002;2023-02-04T01:41:29;97984.70;;;2.40;100.00
34921;BME280;21128;50.016;20.002;2023-02-04T01:44:00;97969.14;;;2.40;100.00
34921;BME280;21128;50.016;20.002;2023-02-04T01:46:27;97969.97;;;2.40;100.00
34921;BME280;21128;50.016;20.002;2023-02-04T01:48:54;97977.75;;;2.40;100.00
34921;BME280;21128;50.016;20.002;2023-02-04T01:51:25;97979.52;;;2.40;100.00
34921;BME280;21128;50.016;20.002;2023-02-04T01:53:55;97973.50;;;2.39;100.00
34921;BME280;21128;50.016;20.002;2023-02-04T01:56:25;97963.95;;;2.40;100.00
34921;BME280;21128;50.016;20.002;2023-02-04T01:58:54;97964.78;;;2.40;100.00
34921;BME280;21128;50.016;20.002;2023-02-04T02:01:49;97957.95;;;2.39;100.00
34921;BME280;21128;50.016;20.002;2023-02-04T02:04:30;97954.30;;;2.42;100.00
34921;BME280;21128;50.016;20.002;2023-02-04T02:07:01;97972.44;;;2.42;100.00
34921;BME280;21128;50.016;20.002;2023-02-04T02:09:30;97968.08;;;2.42;100.00
34921;BME280;21128;50.016;20.002;2023-02-04T02:12:03;97968.08;;;2.42;100.00
34921;BME280;21128;50.016;20.002;2023-02-04T02:14:30;97972.44;;;2.42;100.00
34921;BME280;21128;50.016;20.002;2023-02-04T02:16:57;97973.27;;;2.42;100.00
34921;BME280;21128;50.016;20.002;2023-02-04T02:19:32;97969.73;;;2.43;100.00
34921;BME280;21128;50.016;20.002;2023-02-04T02:22:06;97980.10;;;2.43;100.00
34921;BME280;21128;50.016;20.002;2023-02-04T02:24:37;97986.97;;;2.44;100.00
34921;BME280;21128;50.016;20.002;2023-02-04T02:27:07;97987.80;;;2.45;100.00
34921;BME280;21128;50.016;20.002;2023-02-04T02:29:36;97990.39;;;2.45;100.00
34921;BME280;21128;50.016;20.002;2023-02-04T02:32:05;97981.78;;;2.44;100.00
34921;BME280;21128;50.016;20.002;2023-02-04T02:34:33;97998.17;;;2.45;100.00
34921;BME280;21128;50.016;20.002;2023-02-04T02:37:02;97998.17;;;2.45;100.00
34921;BME280;21128;50.016;20.002;2023-02-04T02:39:30;98001.79;;;2.42;100.00
34921;BME280;21128;50.016;20.002;2023-02-04T02:41:58;97998.38;;;2.42;100.00
34921;BME280;21128;50.016;20.002;2023-02-04T02:44:25;97995.89;;;2.40;100.00
34921;BME280;21128;50.016;20.002;2023-02-04T02:46:54;97998.60;;;2.39;100.00
34921;BME280;21128;50.016;20.002;2023-02-04T02:49:21;98017.70;;;2.38;100.00
34921;BME280;21128;50.016;20.002;2023-02-04T02:51:49;98008.27;;;2.37;100.00
34921;BME280;21128;50.016;20.002;2023-02-04T02:54:26;98014.39;;;2.36;100.00
34921;BME280;21128;50.016;20.002;2023-02-04T02:56:54;98017.07;;;2.34;100.00
34921;BME280;21128;50.016;20.002;2023-02-04T02:59:23;98018.02;;;2.33;100.00
34921;BME280;21128;50.016;20.002;2023-02-04T03:01:55;98025.20;;;2.30;100.00
34921;BME280;21128;50.016;20.002;2023-02-04T03:04:25;98011.41;;;2.29;100.00
34921;BME280;21128;50.016;20.002;2023-02-04T03:06:54;98022.72;;;2.28;100.00
34921;BME280;21128;50.016;20.002;2023-02-04T03:09:23;98020.21;;;2.26;100.00
34921;BME280;21128;50.016;20.002;2023-02-04T03:11:52;98035.88;;;2.25;100.00
34921;BME280;21128;50.016;20.002;2023-02-04T03:14:19;98042.95;;;2.23;100.00
34921;BME280;21128;50.016;20.002;2023-02-04T03:16:49;98049.07;;;2.22;100.00
34921;BME280;21128;50.016;20.002;2023-02-04T03:19:16;98051.78;;;2.20;100.00
34921;BME280;21128;50.016;20.002;2023-02-04T03:21:44;98054.48;;;2.19;100.00
34921;BME280;21128;50.016;20.002;2023-02-04T03:24:11;98049.19;;;2.20;100.00
34921;BME280;21128;50.016;20.002;2023-02-04T03:26:39;98068.16;;;2.21;100.00
34921;BME280;21128;50.016;20.002;2023-02-04T03:29:08;98062.97;;;2.21;100.00
34921;BME280;21128;50.016;20.002;2023-02-04T03:31:36;98072.52;;;2.20;100.00
34921;BME280;21128;50.016;20.002;2023-02-04T03:34:04;98079.55;;;2.18;100.00
34921;BME280;21128;50.016;20.002;2023-02-04T03:36:31;98070.23;;;2.16;100.00
34921;BME280;21128;50.016;20.002;2023-02-04T03:38:58;98076.47;;;2.13;100.00
34921;BME280;21128;50.016;20.002;2023-02-04T03:41:25;98091.39;;;2.10;100.00
34921;BME280;21128;50.016;20.002;2023-02-04T03:43:53;98075.24;;;2.06;100.00
34921;BME280;21128;50.016;20.002;2023-02-04T03:46:20;98077.31;;;2.01;100.00
34921;BME280;21128;50.016;20.002;2023-02-04T03:48:50;98104.50;;;1.95;100.00
34921;BME280;21128;50.016;20.002;2023-02-04T03:51:17;98115.28;;;1.89;100.00
34921;BME280;21128;50.016;20.002;2023-02-04T03:53:44;98117.56;;;1.81;100.00
34921;BME280;21128;50.016;20.002;2023-02-04T03:56:11;98119.84;;;1.73;100.00
34921;BME280;21128;50.016;20.002;2023-02-04T03:58:38;98136.55;;;1.69;100.00
34921;BME280;21128;50.016;20.002;2023-02-04T04:01:06;98124.72;;;1.65;100.00
34921;BME280;21128;50.016;20.002;2023-02-04T04:03:33;98142.23;;;1.61;100.00
34921;BME280;21128;50.016;20.002;2023-02-04T04:06:00;98150.19;;;1.58;100.00
34921;BME280;21128;50.016;20.002;2023-02-04T04:08:27;98166.77;;;1.56;100.00
34921;BME280;21128;50.016;20.002;2023-02-04T04:10:54;98161.81;;;1.53;100.00
34921;BME280;21128;50.016;20.002;2023-02-04T04:13:22;98174.00;;;1.51;100.00
34921;BME280;21128;50.016;20.002;2023-02-04T04:15:49;98179.39;;;1.48;100.00
34921;BME280;21128;50.016;20.002;2023-02-04T04:18:16;98180.44;;;1.45;100.00
34921;BME280;21128;50.016;20.002;2023-02-04T04:20:43;98189.21;;;1.43;100.00
34921;BME280;21128;50.016;20.002;2023-02-04T04:23:10;98206.83;;;1.37;100.00
34921;BME280;21128;50.016;20.002;2023-02-04T04:25:38;98218.50;;;1.30;100.00
34921;BME280;21128;50.016;20.002;2023-02-04T04:28:05;98229.14;;;1.26;100.00
34921;BME280;21128;50.016;20.002;2023-02-04T04:30:32;98248.39;;;1.22;100.00
34921;BME280;21128;50.016;20.002;2023-02-04T04:32:59;98267.82;;;1.15;100.00
34921;BME280;21128;50.016;20.002;2023-02-04T04:35:26;98272.75;;;1.05;100.00
34921;BME280;21128;50.016;20.002;2023-02-04T04:37:54;98292.94;;;0.86;100.00
34921;BME280;21128;50.016;20.002;2023-02-04T04:40:22;98314.37;;;0.73;100.00
34921;BME280;21128;50.016;20.002;2023-02-04T04:42:49;98329.71;;;0.62;100.00
34921;BME280;21128;50.016;20.002;2023-02-04T04:45:16;98352.03;;;0.49;100.00
34921;BME280;21128;50.016;20.002;2023-02-04T04:47:44;98359.60;;;0.38;100.00
34921;BME280;21128;50.016;20.002;2023-02-04T04:50:11;98372.48;;;0.23;100.00
34921;BME280;21128;50.016;20.002;2023-02-04T04:52:38;98389.55;;;0.12;100.00
34921;BME280;21128;50.016;20.002;2023-02-04T04:55:06;98393.67;;;0.00;100.00
34921;BME280;21128;50.016;20.002;2023-02-04T04:57:34;98404.43;;;-0.08;100.00
34921;BME280;21128;50.016;20.002;2023-02-04T05:00:02;98423.67;;;-0.13;100.00
34921;BME280;21128;50.016;20.002;2023-02-04T05:02:30;98444.58;;;-0.18;100.00
34921;BME280;21128;50.016;20.002;2023-02-04T05:04:57;98452.59;;;-0.22;100.00
34921;BME280;21128;50.016;20.002;2023-02-04T05:07:25;98454.67;;;-0.29;100.00
34921;BME280;21128;50.016;20.002;2023-02-04T05:09:53;98501.88;;;-0.43;100.00
34921;BME280;21128;50.016;20.002;2023-02-04T05:12:20;98499.78;;;-0.52;100.00
34921;BME280;21128;50.016;20.002;2023-02-04T05:14:47;98513.17;;;-0.61;100.00
34921;BME280;21128;50.016;20.002;2023-02-04T05:17:17;98531.63;;;-0.69;100.00
34921;BME280;21128;50.016;20.002;2023-02-04T05:19:44;98555.24;;;-0.76;100.00
34921;BME280;21128;50.016;20.002;2023-02-04T05:22:11;98567.31;;;-0.77;100.00
34921;BME280;21128;50.016;20.002;2023-02-04T05:24:38;98572.55;;;-0.78;100.00
34921;BME280;21128;50.016;20.002;2023-02-04T05:27:05;98612.47;;;-0.86;100.00
34921;BME280;21128;50.016;20.002;2023-02-04T05:29:35;98620.58;;;-0.93;100.00
34921;BME280;21128;50.016;20.002;2023-02-04T05:32:05;98638.88;;;-0.98;100.00
34921;BME280;21128;50.016;20.002;2023-02-04T05:34:34;98642.50;;;-1.02;100.00
34921;BME280;21128;50.016;20.002;2023-02-04T05:37:02;98655.64;;;-1.06;100.00
34921;BME280;21128;50.016;20.002;2023-02-04T05:39:32;98667.83;;;-1.10;100.00
34921;BME280;21128;50.016;20.002;2023-02-04T05:41:59;98684.37;;;-1.14;100.00
34921;BME280;21128;50.016;20.002;2023-02-04T05:44:26;98701.50;;;-1.13;100.00
34921;BME280;21128;50.016;20.002;2023-02-04T05:46:55;98719.70;;;-1.16;100.00
34921;BME280;21128;50.016;20.002;2023-02-04T05:49:25;98731.06;;;-1.20;100.00
34921;BME280;21128;50.016;20.002;2023-02-04T05:51:52;98732.12;;;-1.24;100.00
34921;BME280;21128;50.016;20.002;2023-02-04T05:54:22;98770.16;;;-1.29;100.00
34921;BME280;21128;50.016;20.002;2023-02-04T05:56:52;98783.20;;;-1.32;100.00
34921;BME280;21128;50.016;20.002;2023-02-04T05:59:21;98783.20;;;-1.32;100.00
34921;BME280;21128;50.016;20.002;2023-02-04T06:01:49;98801.31;;;-1.34;100.00
34921;BME280;21128;50.016;20.002;2023-02-04T06:04:19;98822.81;;;-1.35;100.00
34921;BME280;21128;50.016;20.002;2023-02-04T06:06:48;98840.24;;;-1.40;100.00
34921;BME280;21128;50.016;20.002;2023-02-04T06:09:16;98855.78;;;-1.42;100.00
34921;BME280;21128;50.016;20.002;2023-02-04T06:11:46;98866.92;;;-1.41;100.00
34921;BME280;21128;50.016;20.002;2023-02-04T06:14:16;98883.30;;;-1.42;100.00
34921;BME280;21128;50.016;20.002;2023-02-04T06:16:43;98903.95;;;-1.44;100.00
34921;BME280;21128;50.016;20.002;2023-02-04T06:19:10;98909.91;;;-1.42;100.00
34921;BME280;21128;50.016;20.002;2023-02-04T06:21:37;98936.59;;;-1.43;100.00
34921;BME280;21128;50.016;20.002;2023-02-04T06:24:05;98947.73;;;-1.42;100.00
34921;BME280;21128;50.016;20.002;2023-02-04T06:26:32;98955.50;;;-1.44;100.00
34921;BME280;21128;50.016;20.002;2023-02-04T06:28:59;98969.30;;;-1.45;100.00
34921;BME280;21128;50.016;20.002;2023-02-04T06:31:26;98974.45;;;-1.45;100.00
34921;BME280;21128;50.016;20.002;2023-02-04T06:33:53;98982.25;;;-1.46;100.00
34921;BME280;21128;50.016;20.002;2023-02-04T06:36:19;99004.55;;;-1.45;100.00
34921;BME280;21128;50.016;20.002;2023-02-04T06:38:46;99027.74;;;-1.45;100.00
34921;BME280;21128;50.016;20.002;2023-02-04T06:41:13;99043.14;;;-1.44;100.00
34921;BME280;21128;50.016;20.002;2023-02-04T06:43:40;99041.47;;;-1.45;100.00
34921;BME280;21128;50.016;20.002;2023-02-04T06:46:07;99052.58;;;-1.43;100.00
34921;BME280;21128;50.016;20.002;2023-02-04T06:48:34;99083.54;;;-1.44;100.00
34921;BME280;21128;50.016;20.002;2023-02-04T06:51:01;99105.91;;;-1.45;100.00
34921;BME280;21128;50.016;20.002;2023-02-04T06:53:28;99117.95;;;-1.45;100.00
34921;BME280;21128;50.016;20.002;2023-02-04T06:56:03;99132.58;;;-1.46;100.00
34921;BME280;21128;50.016;20.002;2023-02-04T06:58:30;99152.30;;;-1.45;100.00
34921;BME280;21128;50.016;20.002;2023-02-04T07:00:57;99160.83;;;-1.43;100.00
34921;BME280;21128;50.016;20.002;2023-02-04T07:03:24;99157.35;;;-1.42;100.00
34921;BME280;21128;50.016;20.002;2023-02-04T07:05:51;99181.39;;;-1.41;100.00
34921;BME280;21128;50.016;20.002;2023-02-04T07:08:19;99193.44;;;-1.42;100.00
34921;BME280;21128;50.016;20.002;2023-02-04T07:10:49;99214.09;;;-1.43;100.00
34921;BME280;21128;50.016;20.002;2023-02-04T07:13:16;99218.41;;;-1.44;100.00
34921;BME280;21128;50.016;20.002;2023-02-04T07:15:43;99235.45;;;-1.39;100.00
34921;BME280;21128;50.016;20.002;2023-02-04T07:18:10;99252.59;;;-1.38;100.00
34921;BME280;21128;50.016;20.002;2023-02-04T07:20:37;99245.64;;;-1.36;100.00
34921;BME280;21128;50.016;20.002;2023-02-04T07:23:04;99265.42;;;-1.37;100.00
34921;BME280;21128;50.016;20.002;2023-02-04T07:25:31;99271.33;;;-1.33;100.00
34921;BME280;21128;50.016;20.002;2023-02-04T07:27:58;99289.38;;;-1.33;100.00
34921;BME280;21128;50.016;20.002;2023-02-04T07:30:27;99305.62;;;-1.31;100.00
34921;BME280;21128;50.016;20.002;2023-02-04T07:32:54;99314.19;;;-1.31;100.00
34921;BME280;21128;50.016;20.002;2023-02-04T07:35:21;99327.92;;;-1.30;100.00
34921;BME280;21128;50.016;20.002;2023-02-04T07:37:48;99333.02;;;-1.29;100.00
34921;BME280;21128;50.016;20.002;2023-02-04T07:40:15;99351.91;;;-1.28;100.00
34921;BME280;21128;50.016;20.002;2023-02-04T07:42:42;99359.58;;;-1.27;100.00
34921;BME280;21128;50.016;20.002;2023-02-04T07:45:09;99372.47;;;-1.27;100.00
34921;BME280;21128;50.016;20.002;2023-02-04T07:47:36;99366.44;;;-1.26;100.00
34921;BME280;21128;50.016;20.002;2023-02-04T07:50:03;99389.67;;;-1.27;100.00
34921;BME280;21128;50.016;20.002;2023-02-04T07:52:30;99406.89;;;-1.28;100.00
34921;BME280;21128;50.016;20.002;2023-02-04T07:54:57;99412.11;;;-1.29;100.00
34921;BME280;21128;50.016;20.002;2023-02-04T07:57:25;99422.30;;;-1.26;100.00
34921;BME280;21128;50.016;20.002;2023-02-04T07:59:52;99425.69;;;-1.24;100.00
34921;BME280;21128;50.016;20.002;2023-02-04T08:02:19;99447.09;;;-1.22;100.00
34921;BME280;21128;50.016;20.002;2023-02-04T08:04:46;99453.03;;;-1.20;100.00
34921;BME280;21128;50.016;20.002;2023-02-04T08:07:13;99452.95;;;-1.17;100.00
34921;BME280;21128;50.016;20.002;2023-02-04T08:09:40;99455.47;;;-1.16;100.00
34921;BME280;21128;50.016;20.002;2023-02-04T08:12:07;99465.61;;;-1.11;100.00
34921;BME280;21128;50.016;20.002;2023-02-04T08:14:34;99467.97;;;-1.05;100.00
34921;BME280;21128;50.016;20.002;2023-02-04T08:17:00;99478.09;;;-0.99;100.00
34921;BME280;21128;50.016;20.002;2023-02-04T08:19:28;99491.77;;;-0.97;100.00
34921;BME280;21128;50.016;20.002;2023-02-04T08:21:55;99483.06;;;-0.94;100.00
34921;BME280;21128;50.016;20.002;2023-02-04T08:24:21;99501.19;;;-0.96;100.00
34921;BME280;21128;50.016;20.002;2023-02-04T08:26:48;99517.77;;;-1.03;100.00
34921;BME280;21128;50.016;20.002;2023-02-04T08:29:15;99515.51;;;-1.12;100.00
34921;BME280;21128;50.016;20.002;2023-02-04T08:31:42;99525.83;;;-1.12;100.00
34921;BME280;21128;50.016;20.002;2023-02-04T08:34:09;99531.62;;;-1.05;100.00
34921;BME280;21128;50.016;20.002;2023-02-04T08:36:36;99542.66;;;-1.02;100.00
34921;BME280;21128;50.016;20.002;2023-02-04T08:39:03;99533.94;;;-0.98;100.00
34921;BME280;21128;50.016;20.002;2023-02-04T08:41:30;99547.50;;;-0.93;100.00
34921;BME280;21128;50.016;20.002;2023-02-04T08:43:59;99550.08;;;-0.93;100.00
34921;BME280;21128;50.016;20.002;2023-02-04T08:46:26;99563.68;;;-0.88;100.00
34921;BME280;21128;50.016;20.002;2023-02-04T08:48:53;99560.05;;;-0.82;100.00
34921;BME280;21128;50.016;20.002;2023-02-04T08:51:20;99579.48;;;-0.72;100.00
34921;BME280;21128;50.016;20.002;2023-02-04T08:53:47;99586.00;;;-0.62;100.00
34921;BME280;21128;50.016;20.002;2023-02-04T08:56:14;99584.05;;;-0.55;100.00
34921;BME280;21128;50.016;20.002;2023-02-04T08:58:43;99598.09;;;-0.39;100.00
34921;BME280;21128;50.016;20.002;2023-02-04T09:01:11;99599.30;;;0.21;100.00
34921;BME280;21128;50.016;20.002;2023-02-04T09:03:38;99599.45;;;0.82;100.00
34921;BME280;21128;50.016;20.002;2023-02-04T09:06:06;99604.98;;;1.16;100.00
34921;BME280;21128;50.016;20.002;2023-02-04T09:08:34;99612.44;;;1.23;100.00
34921;BME280;21128;50.016;20.002;2023-02-04T09:11:02;99625.00;;;1.12;100.00
34921;BME280;21128;50.016;20.002;2023-02-04T09:13:31;99634.06;;;0.80;100.00
34921;BME280;21128;50.016;20.002;2023-02-04T09:15:58;99644.89;;;0.46;100.00
34921;BME280;21128;50.016;20.002;2023-02-04T09:18:25;99641.91;;;0.11;100.00
34921;BME280;21128;50.016;20.002;2023-02-04T09:20:52;99666.63;;;-0.05;100.00
34921;BME280;21128;50.016;20.002;2023-02-04T09:23:19;99659.20;;;-0.14;100.00
34921;BME280;21128;50.016;20.002;2023-02-04T09:25:47;99659.53;;;-0.23;100.00
34921;BME280;21128;50.016;20.002;2023-02-04T09:28:14;99666.53;;;-0.27;100.00
34921;BME280;21128;50.016;20.002;2023-02-04T09:30:44;99665.93;;;-0.34;100.00
34921;BME280;21128;50.016;20.002;2023-02-04T09:33:13;99664.45;;;-0.41;100.00
34921;BME280;21128;50.016;20.002;2023-02-04T09:35:42;99664.92;;;-0.54;100.00
34921;BME280;21128;50.016;20.002;2023-02-04T09:38:09;99669.35;;;-0.58;100.00
34921;BME280;21128;50.016;20.002;2023-02-04T09:40:40;99670.34;;;-0.62;100.00
34921;BME280;21128;50.016;20.002;2023-02-04T09:43:14;99683.13;;;-0.59;100.00
34921;BME280;21128;50.016;20.002;2023-02-04T09:45:49;99672.77;;;-0.58;100.00
34921;BME280;21128;50.016;20.002;2023-02-04T09:48:17;99690.67;;;-0.53;100.00
34921;BME280;21128;50.016;20.002;2023-02-04T09:50:45;99707.06;;;-0.54;100.00
34921;BME280;21128;50.016;20.002;2023-02-04T09:53:16;99706.36;;;-0.59;100.00
34921;BME280;21128;50.016;20.002;2023-02-04T09:55:46;99703.89;;;-0.62;100.00
34921;BME280;21128;50.016;20.002;2023-02-04T09:58:16;99716.69;;;-0.59;100.00
34921;BME280;21128;50.016;20.002;2023-02-04T10:00:46;99722.37;;;-0.23;100.00
34921;BME280;21128;50.016;20.002;2023-02-04T10:03:16;99707.50;;;-0.16;100.00
34921;BME280;21128;50.016;20.002;2023-02-04T10:05:45;99720.45;;;-0.18;100.00
34921;BME280;21128;50.016;20.002;2023-02-04T10:08:18;99724.42;;;-0.08;100.00
34921;BME280;21128;50.016;20.002;2023-02-04T10:10:47;99733.34;;;-0.16;100.00
34921;BME280;21128;50.016;20.002;2023-02-04T10:13:18;99748.45;;;-0.31;100.00
34921;BME280;21128;50.016;20.002;2023-02-04T10:15:47;99752.44;;;-0.47;100.00
34921;BME280;21128;50.016;20.002;2023-02-04T10:18:25;99749.57;;;-0.64;100.00
34921;BME280;21128;50.016;20.002;2023-02-04T10:21:17;99748.86;;;-0.69;100.00
34921;BME280;21128;50.016;20.002;2023-02-04T10:23:48;99737.04;;;-0.76;100.00
34921;BME280;21128;50.016;20.002;2023-02-04T10:26:17;99753.42;;;-0.77;100.00
34921;BME280;21128;50.016;20.002;2023-02-04T10:28:44;99769.02;;;-0.80;100.00
34921;BME280;21128;50.016;20.002;2023-02-04T10:31:36;99769.25;;;-0.88;100.00
34921;BME280;21128;50.016;20.002;2023-02-04T10:36:44;99786.42;;;-1.15;100.00
34921;BME280;21128;50.016;20.002;2023-02-04T10:39:15;99780.37;;;-1.14;100.00
34921;BME280;21128;50.016;20.002;2023-02-04T10:41:49;99784.28;;;-1.01;100.00
34921;BME280;21128;50.016;20.002;2023-02-04T10:44:26;99789.77;;;-0.83;100.00
34921;BME280;21128;50.016;20.002;2023-02-04T10:47:01;99791.95;;;-0.71;100.00
34921;BME280;21128;50.016;20.002;2023-02-04T10:49:30;99794.53;;;-0.71;100.00
34921;BME280;21128;50.016;20.002;2023-02-04T10:51:57;99811.17;;;-0.53;100.00
34921;BME280;21128;50.016;20.002;2023-02-04T10:54:27;99809.08;;;-0.42;100.00
34921;BME280;21128;50.016;20.002;2023-02-04T10:59:45;99814.00;;;-0.35;100.00
34921;BME280;21128;50.016;20.002;2023-02-04T11:05:05;99800.11;;;-0.31;100.00
34921;BME280;21128;50.016;20.002;2023-02-04T11:07:36;99798.56;;;-0.36;100.00
34921;BME280;21128;50.016;20.002;2023-02-04T11:10:03;99818.13;;;-0.29;100.00
34921;BME280;21128;50.016;20.002;2023-02-04T11:12:39;99823.23;;;-0.27;100.00
34921;BME280;21128;50.016;20.002;2023-02-04T11:15:46;99810.63;;;-0.37;100.00
34921;BME280;21128;50.016;20.002;2023-02-04T11:20:49;99824.08;;;-0.27;100.00
34921;BME280;21128;50.016;20.002;2023-02-04T11:25:43;99824.67;;;-0.19;97.39
34921;BME280;21128;50.016;20.002;2023-02-04T11:28:22;99816.00;;;-0.16;100.00
34921;BME280;21128;50.016;20.002;2023-02-04T11:31:01;99837.89;;;-0.28;94.72
34921;BME280;21128;50.016;20.002;2023-02-04T11:33:40;99839.14;;;-0.40;95.55
34921;BME280;21128;50.016;20.002;2023-02-04T11:36:09;99822.94;;;-0.45;93.95
34921;BME280;21128;50.016;20.002;2023-02-04T11:38:39;99842.92;;;-0.50;95.13
34921;BME280;21128;50.016;20.002;2023-02-04T11:41:16;99843.00;;;-0.53;94.61
34921;BME280;21128;50.016;20.002;2023-02-04T11:43:44;99844.79;;;-0.55;94.16
34921;BME280;21128;50.016;20.002;2023-02-04T11:46:18;99842.92;;;-0.50;95.12
34921;BME280;21128;50.016;20.002;2023-02-04T11:48:53;99832.38;;;-0.44;94.75
34921;BME280;21128;50.016;20.002;2023-02-04T11:51:31;99847.02;;;-0.44;93.72
34921;BME280;21128;50.016;20.002;2023-02-04T11:53:59;99836.09;;;-0.52;93.91
34921;BME280;21128;50.016;20.002;2023-02-04T11:56:28;99860.45;;;-0.61;94.29
34921;BME280;21128;50.016;20.002;2023-02-04T11:58:57;99868.44;;;-0.69;94.72
34921;BME280;21128;50.016;20.002;2023-02-04T12:01:32;99846.99;;;-0.71;92.48
34921;BME280;21128;50.016;20.002;2023-02-04T12:04:02;99870.22;;;-0.71;94.02
34921;BME280;21128;50.016;20.002;2023-02-04T12:06:33;99875.33;;;-0.69;93.95
34921;BME280;21128;50.016;20.002;2023-02-04T12:09:27;99879.60;;;-0.68;93.87
34921;BME280;21128;50.016;20.002;2023-02-04T12:12:02;99898.66;;;-0.72;93.64
34921;BME280;21128;50.016;20.002;2023-02-04T12:14:35;99873.83;;;-0.76;93.70
34921;BME280;21128;50.016;20.002;2023-02-04T12:17:17;99895.31;;;-0.76;94.89
34921;BME280;21128;50.016;20.002;2023-02-04T12:19:44;99891.98;;;-0.79;94.15
34921;BME280;21128;50.016;20.002;2023-02-04T12:22:14;99899.84;;;-0.82;95.71
34921;BME280;21128;50.016;20.002;2023-02-04T12:24:43;99899.95;;;-0.87;95.42
34921;BME280;21128;50.016;20.002;2023-02-04T12:27:11;99898.39;;;-0.93;92.76
34921;BME280;21128;50.016;20.002;2023-02-04T12:29:38;99913.92;;;-0.94;92.60
34921;BME280;21128;50.016;20.002;2023-02-04T12:32:07;99920.77;;;-0.93;92.35
34921;BME280;21128;50.016;20.002;2023-02-04T12:34:35;99916.65;;;-0.99;92.18
34921;BME280;21128;50.016;20.002;2023-02-04T12:37:05;99913.12;;;-0.96;94.07
34921;BME280;21128;50.016;20.002;2023-02-04T12:39:32;99914.86;;;-0.97;93.05
34921;BME280;21128;50.016;20.002;2023-02-04T12:41:59;99920.28;;;-1.06;92.00
34921;BME280;21128;50.016;20.002;2023-02-04T12:44:26;99937.66;;;-1.12;92.99
34921;BME280;21128;50.016;20.002;2023-02-04T12:46:53;99937.81;;;-1.19;93.01
34921;BME280;21128;50.016;20.002;2023-02-04T12:49:21;99934.58;;;-1.25;91.29
34921;BME280;21128;50.016;20.002;2023-02-04T12:51:50;99959.73;;;-1.35;90.73
34921;BME280;21128;50.016;20.002;2023-02-04T12:54:17;99954.77;;;-1.41;91.00
34921;BME280;21128;50.016;20.002;2023-02-04T12:56:48;99948.77;;;-1.42;91.99
34921;BME280;21128;50.016;20.002;2023-02-04T12:59:18;99965.14;;;-1.44;90.08
34921;BME280;21128;50.016;20.002;2023-02-04T13:01:48;99980.66;;;-1.46;90.70
34921;BME280;21128;50.016;20.002;2023-02-04T13:04:15;99980.70;;;-1.47;90.14
34921;BME280;21128;50.016;20.002;2023-02-04T13:06:45;99970.38;;;-1.47;88.68